Time;durP1;ratioP1;P1;durP2;ratioP2;P2;SDS_P1;SDS_P2;PMS_P1;PMS_P2;Temp;Humidity;BMP_temperature;BMP_pressure;BME280_temperature;BME280_humidity;BME280_pressure;Samples;Min_cycle;Max_cycle;Signal;HPM_P1;HPM_P2
2022/01/29 00:00:24;;;;;;;;;5.25;5.25;;;;;;;;5064560;27;45503;-71
2022/01/29 00:02:50;;;;;;;;;3.50;3.25;;;;;;;;5065121;28;45552;-71
2022/01/29 00:05:15;;;;;;;;;5.25;4.75;;;;;;;;5070139;27;45450;-71
2022/01/29 00:07:41;;;;;;;;;5.75;3.00;;;;;;;;5064393;28;45310;-70
2022/01/29 00:10:07;;;;;;;;;8.75;5.00;;;;;;;;5060848;28;45365;-71
2022/01/29 00:12:32;;;;;;;;;4.75;4.75;;;;;;;;5070969;28;49262;-71
2022/01/29 00:14:58;;;;;;;;;5.25;4.00;;;;;;;;5067530;28;45416;-71
2022/01/29 00:17:23;;;;;;;;;4.75;4.00;;;;;;;;5068424;27;45375;-71
2022/01/29 00:19:48;;;;;;;;;3.25;3.25;;;;;;;;5075326;27;45746;-71
2022/01/29 00:22:13;;;;;;;;;6.00;4.00;;;;;;;;5055641;28;47446;-71
2022/01/29 00:24:39;;;;;;;;;4.00;4.00;;;;;;;;5070689;27;45360;-70
2022/01/29 00:27:09;;;;;;;;;5.50;4.50;;;;;;;;5074222;27;45572;-71
2022/01/29 00:29:37;;;;;;;;;4.25;4.00;;;;;;;;5075051;28;45619;-71
2022/01/29 00:32:02;;;;;;;;;5.75;5.00;;;;;;;;5073073;27;46581;-69
2022/01/29 00:34:28;;;;;;;;;6.00;6.00;;;;;;;;5073865;28;45473;-70
2022/01/29 00:36:53;;;;;;;;;4.00;4.00;;;;;;;;5075761;28;45442;-69
2022/01/29 00:39:18;;;;;;;;;6.00;6.00;;;;;;;;5073729;28;45542;-70
2022/01/29 00:41:43;;;;;;;;;4.50;3.25;;;;;;;;5071188;28;46340;-70
2022/01/29 00:44:08;;;;;;;;;7.25;4.25;;;;;;;;5072099;28;45629;-68
2022/01/29 00:46:40;;;;;;;;;5.00;4.50;;;;;;;;5072658;28;45576;-69
2022/01/29 00:49:05;;;;;;;;;4.75;3.25;;;;;;;;5065496;28;45335;-69
2022/01/29 00:51:30;;;;;;;;;4.50;4.50;;;;;;;;5068506;27;46476;-69
2022/01/29 00:53:56;;;;;;;;;5.50;5.50;;;;;;;;5071694;28;45403;-70
2022/01/29 00:56:21;;;;;;;;;4.25;4.25;;;;;;;;5074536;28;45486;-71
2022/01/29 00:58:46;;;;;;;;;4.00;4.00;;;;;;;;5071170;28;50182;-70
2022/01/29 01:01:12;;;;;;;;;4.50;3.50;;;;;;;;5071976;28;45427;-70
2022/01/29 01:03:37;;;;;;;;;4.50;4.50;;;;;;;;5068768;27;45401;-70
2022/01/29 01:06:02;;;;;;;;;4.75;4.00;;;;;;;;5070374;28;45455;-71
2022/01/29 01:08:28;;;;;;;;;3.50;3.50;;;;;;;;5069096;27;45315;-70
2022/01/29 01:10:53;;;;;;;;;3.25;3.25;;;;;;;;5065807;28;46425;-70
2022/01/29 01:13:18;;;;;;;;;3.25;3.00;;;;;;;;5072259;27;45733;-71
2022/01/29 01:15:43;;;;;;;;;3.50;3.50;;;;;;;;5072147;28;45335;-71
2022/01/29 01:18:08;;;;;;;;;4.25;3.75;;;;;;;;5056167;28;45425;-70
2022/01/29 01:20:34;;;;;;;;;5.00;5.00;;;;;;;;5063097;28;45464;-71
2022/01/29 01:22:59;;;;;;;;;5.00;4.00;;;;;;;;5067672;28;45573;-69
2022/01/29 01:25:24;;;;;;;;;2.00;2.00;;;;;;;;5072027;27;45629;-70
2022/01/29 01:27:50;;;;;;;;;3.00;3.00;;;;;;;;5074554;27;45453;-70
2022/01/29 01:30:16;;;;;;;;;5.00;3.00;;;;;;;;5071945;28;45633;-70
2022/01/29 01:32:41;;;;;;;;;3.75;2.25;;;;;;;;5070949;28;45378;-70
2022/01/29 01:35:28;;;;;;;;;4.50;4.25;;;;;;;;5071668;27;45668;-71
2022/01/29 01:40:44;;;;;;;;;5.00;5.00;;;;;;;;5026804;28;45502;-70
2022/01/29 01:43:10;;;;;;;;;4.00;2.75;;;;;;;;5028646;28;45410;-71
2022/01/29 01:45:35;;;;;;;;;3.75;3.75;;;;;;;;5029837;28;45661;-69
2022/01/29 01:48:04;;;;;;;;;2.00;2.00;;;;;;;;5029559;28;45333;-68
2022/01/29 01:50:30;;;;;;;;;5.25;3.75;;;;;;;;5027463;28;45567;-68
2022/01/29 01:52:55;;;;;;;;;4.25;4.25;;;;;;;;5028343;28;45290;-68
2022/01/29 01:55:22;;;;;;;;;5.00;3.00;;;;;;;;5031800;28;45395;-68
2022/01/29 01:57:47;;;;;;;;;3.00;3.00;;;;;;;;5032680;28;45553;-68
2022/01/29 02:00:13;;;;;;;;;3.00;3.00;;;;;;;;5029883;28;45372;-68
2022/01/29 02:02:38;;;;;;;;;3.50;3.50;;;;;;;;5030083;28;45410;-68
2022/01/29 02:05:04;;;;;;;;;3.00;3.00;;;;;;;;5031674;28;45580;-68
2022/01/29 02:07:29;;;;;;;;;6.00;3.50;;;;;;;;5031115;28;45322;-69
2022/01/29 02:09:55;;;;;;;;;3.00;3.00;;;;;;;;5031625;28;45401;-68
2022/01/29 02:12:20;;;;;;;;;4.00;2.75;;;;;;;;5035915;28;45561;-68
2022/01/29 02:14:45;;;;;;;;;3.50;3.00;;;;;;;;5037002;28;45566;-68
2022/01/29 02:17:11;;;;;;;;;4.25;3.00;;;;;;;;5040570;28;45569;-69
2022/01/29 02:19:36;;;;;;;;;3.75;3.25;;;;;;;;5053861;28;47569;-68
2022/01/29 02:22:02;;;;;;;;;2.75;2.75;;;;;;;;5074738;28;45402;-68
2022/01/29 02:24:27;;;;;;;;;4.00;3.00;;;;;;;;5055972;28;45324;-68
2022/01/29 02:26:53;;;;;;;;;2.25;2.00;;;;;;;;5072872;28;45401;-68
2022/01/29 02:29:19;;;;;;;;;3.00;3.00;;;;;;;;5072790;28;46706;-68
2022/01/29 02:32:03;;;;;;;;;2.00;2.00;;;;;;;;5073620;27;46428;-68
2022/01/29 02:34:29;;;;;;;;;3.50;3.00;;;;;;;;5072552;28;45300;-68
2022/01/29 02:36:55;;;;;;;;;3.25;2.25;;;;;;;;5075021;28;45615;-68
2022/01/29 02:39:21;;;;;;;;;3.00;3.00;;;;;;;;5077015;27;46415;-68
2022/01/29 02:41:46;;;;;;;;;2.00;2.00;;;;;;;;5075946;27;45505;-68
2022/01/29 02:44:18;;;;;;;;;2.00;2.00;;;;;;;;5085692;27;45442;-68
2022/01/29 02:49:12;;;;;;;;;3.50;3.00;;;;;;;;5077442;27;45426;-68
2022/01/29 02:51:43;;;;;;;;;2.50;2.50;;;;;;;;5077702;28;45445;-68
2022/01/29 02:54:08;;;;;;;;;3.00;3.00;;;;;;;;5075918;28;45469;-68
2022/01/29 02:56:33;;;;;;;;;3.50;3.50;;;;;;;;5076117;27;45270;-68
2022/01/29 02:58:58;;;;;;;;;2.00;2.00;;;;;;;;5075903;28;45265;-68
2022/01/29 03:01:24;;;;;;;;;1.00;1.00;;;;;;;;5074974;28;48280;-68
2022/01/29 03:03:49;;;;;;;;;1.50;1.50;;;;;;;;5076091;27;45475;-68
2022/01/29 03:06:14;;;;;;;;;2.75;2.75;;;;;;;;5073195;27;45407;-68
2022/01/29 03:08:39;;;;;;;;;2.00;2.00;;;;;;;;5075426;28;47039;-68
2022/01/29 03:11:05;;;;;;;;;3.00;3.00;;;;;;;;5074236;27;45972;-68
2022/01/29 03:13:30;;;;;;;;;3.00;1.75;;;;;;;;5076257;27;46002;-68
2022/01/29 03:15:55;;;;;;;;;2.25;2.00;;;;;;;;5059229;28;45601;-68
2022/01/29 03:18:20;;;;;;;;;2.25;2.00;;;;;;;;5075305;28;47359;-68
2022/01/29 03:20:45;;;;;;;;;2.75;2.75;;;;;;;;5076758;27;45431;-68
2022/01/29 03:23:13;;;;;;;;;4.00;3.50;;;;;;;;5075509;27;45302;-68
2022/01/29 03:25:38;;;;;;;;;2.00;2.00;;;;;;;;5075436;27;45549;-68
2022/01/29 03:28:04;;;;;;;;;2.00;2.00;;;;;;;;5080072;27;46735;-68
2022/01/29 03:30:29;;;;;;;;;4.00;2.75;;;;;;;;5065781;27;45536;-68
2022/01/29 03:32:54;;;;;;;;;2.00;2.00;;;;;;;;5081486;27;45483;-68
2022/01/29 03:35:19;;;;;;;;;2.25;2.25;;;;;;;;5075126;28;45418;-68
2022/01/29 03:37:44;;;;;;;;;2.75;2.75;;;;;;;;5074103;28;45692;-68
2022/01/29 03:40:10;;;;;;;;;2.00;2.00;;;;;;;;5076820;28;45363;-68
2022/01/29 03:42:43;;;;;;;;;1.50;1.50;;;;;;;;5081306;27;45563;-68
2022/01/29 03:45:09;;;;;;;;;1.75;1.75;;;;;;;;5076660;27;45430;-68
2022/01/29 03:47:35;;;;;;;;;3.00;3.00;;;;;;;;5080859;27;46492;-68
2022/01/29 03:50:00;;;;;;;;;1.25;1.25;;;;;;;;5073910;28;45362;-68
2022/01/29 03:52:25;;;;;;;;;2.75;2.00;;;;;;;;5084536;27;45338;-68
2022/01/29 03:54:50;;;;;;;;;2.75;2.75;;;;;;;;5077368;28;45477;-68
2022/01/29 03:57:15;;;;;;;;;2.00;2.00;;;;;;;;5073474;28;45587;-68
2022/01/29 03:59:41;;;;;;;;;2.00;2.00;;;;;;;;5072861;27;45490;-68
2022/01/29 04:02:06;;;;;;;;;1.00;1.00;;;;;;;;5084512;27;45489;-68
2022/01/29 04:04:31;;;;;;;;;3.00;3.00;;;;;;;;5088760;27;45537;-69
2022/01/29 04:07:01;;;;;;;;;4.00;2.50;;;;;;;;5080924;27;47145;-68
2022/01/29 04:09:28;;;;;;;;;2.00;2.00;;;;;;;;5075875;27;45473;-68
2022/01/29 04:11:53;;;;;;;;;2.00;2.00;;;;;;;;5074966;28;45433;-68
2022/01/29 04:14:20;;;;;;;;;3.25;2.00;;;;;;;;5074707;28;45750;-68
2022/01/29 04:16:45;;;;;;;;;2.00;2.00;;;;;;;;5074476;28;45486;-68
2022/01/29 04:19:11;;;;;;;;;1.75;1.75;;;;;;;;5076268;28;45419;-68
2022/01/29 04:21:36;;;;;;;;;3.00;3.00;;;;;;;;5075615;28;45549;-68
2022/01/29 04:24:01;;;;;;;;;2.00;2.00;;;;;;;;5074199;28;45398;-68
2022/01/29 04:26:33;;;;;;;;;2.00;2.00;;;;;;;;5074789;27;46963;-68
2022/01/29 04:28:58;;;;;;;;;2.00;2.00;;;;;;;;5074071;27;45787;-68
2022/01/29 04:31:23;;;;;;;;;1.75;1.00;;;;;;;;5074710;28;45548;-68
2022/01/29 04:33:48;;;;;;;;;2.00;2.00;;;;;;;;5058092;28;45449;-68
2022/01/29 04:36:13;;;;;;;;;2.00;2.00;;;;;;;;5073134;28;46646;-68
2022/01/29 04:38:39;;;;;;;;;2.75;2.75;;;;;;;;5074287;28;45993;-67
2022/01/29 04:41:04;;;;;;;;;2.25;2.25;;;;;;;;5083868;27;45767;-68
2022/01/29 04:43:31;;;;;;;;;1.00;1.00;;;;;;;;5086418;27;45390;-68
2022/01/29 04:45:57;;;;;;;;;2.00;2.00;;;;;;;;5076094;28;45630;-68
2022/01/29 04:48:22;;;;;;;;;1.00;1.00;;;;;;;;5073850;27;45287;-69
2022/01/29 04:50:47;;;;;;;;;0.00;0.00;;;;;;;;5076724;27;45430;-69
2022/01/29 04:53:12;;;;;;;;;1.50;1.00;;;;;;;;5085293;27;45412;-68
2022/01/29 04:55:38;;;;;;;;;1.00;1.00;;;;;;;;5072782;27;45498;-69
2022/01/29 04:58:03;;;;;;;;;2.00;2.00;;;;;;;;5075894;27;45336;-68
2022/01/29 05:00:28;;;;;;;;;2.75;1.75;;;;;;;;5071715;28;45312;-69
2022/01/29 05:02:54;;;;;;;;;2.00;2.00;;;;;;;;5078255;27;45435;-69
2022/01/29 05:05:20;;;;;;;;;2.50;1.50;;;;;;;;5082393;27;46209;-69
2022/01/29 05:07:45;;;;;;;;;1.50;1.25;;;;;;;;5071737;28;45359;-69
2022/01/29 05:10:11;;;;;;;;;2.00;2.00;;;;;;;;5075634;28;45216;-69
2022/01/29 05:12:47;;;;;;;;;4.00;2.00;;;;;;;;5074331;27;45386;-69
2022/01/29 05:15:27;;;;;;;;;3.75;2.00;;;;;;;;5079954;27;45575;-69
2022/01/29 05:28:48;;;;;;;;;2.00;2.00;;;;;;;;5060397;28;45305;-68
2022/01/29 05:31:13;;;;;;;;;2.75;2.00;;;;;;;;5075502;27;45311;-66
2022/01/29 05:33:38;;;;;;;;;1.50;1.50;;;;;;;;5074446;28;45445;-68
2022/01/29 05:36:04;;;;;;;;;1.00;1.00;;;;;;;;5071848;28;46665;-68
2022/01/29 05:38:29;;;;;;;;;3.00;1.25;;;;;;;;5071493;28;45499;-68
2022/01/29 05:40:54;;;;;;;;;2.25;2.00;;;;;;;;5073370;27;45410;-69
2022/01/29 05:43:20;;;;;;;;;2.25;2.25;;;;;;;;5074077;28;45552;-68
2022/01/29 05:45:45;;;;;;;;;1.50;1.50;;;;;;;;5074253;28;45944;-69
2022/01/29 05:48:10;;;;;;;;;1.00;1.00;;;;;;;;5071552;28;45364;-69
2022/01/29 05:50:35;;;;;;;;;1.00;1.00;;;;;;;;5073630;28;45477;-69
2022/01/29 05:53:00;;;;;;;;;3.25;2.00;;;;;;;;5073145;28;45437;-68
2022/01/29 05:55:26;;;;;;;;;1.25;1.25;;;;;;;;5072149;27;45485;-69
2022/01/29 05:57:51;;;;;;;;;1.00;1.00;;;;;;;;5078742;27;45508;-66
2022/01/29 06:00:16;;;;;;;;;2.00;2.00;;;;;;;;5075583;27;45493;-69
2022/01/29 06:02:41;;;;;;;;;2.00;2.00;;;;;;;;5073688;27;45498;-69
2022/01/29 06:05:07;;;;;;;;;2.50;2.00;;;;;;;;5072780;28;45528;-68
2022/01/29 06:07:32;;;;;;;;;1.50;1.50;;;;;;;;5081332;27;45284;-68
2022/01/29 06:09:57;;;;;;;;;1.00;1.00;;;;;;;;5074945;28;45285;-69
2022/01/29 06:12:22;;;;;;;;;1.00;1.00;;;;;;;;5076815;27;48046;-68
2022/01/29 06:14:48;;;;;;;;;1.00;1.00;;;;;;;;5076370;28;45365;-68
2022/01/29 06:17:13;;;;;;;;;2.75;1.75;;;;;;;;5085701;27;45537;-69
2022/01/29 06:19:38;;;;;;;;;3.50;2.75;;;;;;;;5076789;28;45320;-69
2022/01/29 06:22:10;;;;;;;;;1.50;1.50;;;;;;;;5078903;28;45321;-69
2022/01/29 06:24:35;;;;;;;;;2.00;2.00;;;;;;;;5076155;28;45385;-69
2022/01/29 06:27:01;;;;;;;;;2.00;1.00;;;;;;;;5076125;28;45710;-69
2022/01/29 06:29:26;;;;;;;;;2.00;2.00;;;;;;;;5076292;27;45576;-68
2022/01/29 06:31:51;;;;;;;;;1.00;1.00;;;;;;;;5058192;28;45324;-68
2022/01/29 06:34:16;;;;;;;;;1.00;1.00;;;;;;;;5077340;27;45597;-69
2022/01/29 06:36:41;;;;;;;;;1.75;1.75;;;;;;;;5088489;27;45347;-68
2022/01/29 06:39:07;;;;;;;;;3.25;2.00;;;;;;;;5080603;27;45560;-68
2022/01/29 06:41:32;;;;;;;;;1.00;1.00;;;;;;;;5082761;27;45515;-68
2022/01/29 06:43:57;;;;;;;;;2.00;2.00;;;;;;;;5088654;27;46570;-69
2022/01/29 06:46:22;;;;;;;;;1.25;1.25;;;;;;;;5078530;27;45398;-68
2022/01/29 06:48:47;;;;;;;;;1.00;1.00;;;;;;;;5079560;27;45470;-68
2022/01/29 06:51:13;;;;;;;;;2.50;2.50;;;;;;;;5075050;27;45444;-68
2022/01/29 06:53:38;;;;;;;;;2.25;2.00;;;;;;;;5079905;27;46458;-68
2022/01/29 06:56:04;;;;;;;;;3.00;2.00;;;;;;;;5076582;27;45383;-69
2022/01/29 06:58:30;;;;;;;;;2.00;2.00;;;;;;;;5076120;28;45547;-69
2022/01/29 07:00:55;;;;;;;;;1.50;1.50;;;;;;;;5078294;27;45276;-68
2022/01/29 07:03:20;;;;;;;;;1.00;1.00;;;;;;;;5075108;27;45608;-68
2022/01/29 07:05:46;;;;;;;;;2.00;2.00;;;;;;;;5075840;28;45273;-68
2022/01/29 07:08:11;;;;;;;;;2.25;2.25;;;;;;;;5081005;27;45292;-69
2022/01/29 07:10:37;;;;;;;;;1.50;1.50;;;;;;;;5075226;28;45418;-68
2022/01/29 07:13:03;;;;;;;;;1.00;1.00;;;;;;;;5077566;27;46479;-69
2022/01/29 07:15:28;;;;;;;;;1.00;1.00;;;;;;;;5084177;27;45446;-69
2022/01/29 07:17:53;;;;;;;;;2.75;1.25;;;;;;;;5079988;27;45521;-69
2022/01/29 07:20:18;;;;;;;;;1.00;1.00;;;;;;;;5079465;27;45450;-69
2022/01/29 07:22:43;;;;;;;;;2.00;2.00;;;;;;;;5073507;28;46604;-68
2022/01/29 07:25:09;;;;;;;;;1.00;1.00;;;;;;;;5089431;27;45294;-68
2022/01/29 07:27:34;;;;;;;;;2.25;1.00;;;;;;;;5081575;27;45528;-68
2022/01/29 07:29:59;;;;;;;;;1.00;1.00;;;;;;;;5064567;28;45295;-69
2022/01/29 07:32:24;;;;;;;;;1.00;1.00;;;;;;;;5075314;28;45447;-69
2022/01/29 07:34:49;;;;;;;;;0.00;0.00;;;;;;;;5057336;28;45590;-68
2022/01/29 07:37:15;;;;;;;;;1.50;1.50;;;;;;;;5076428;28;45429;-69
2022/01/29 07:39:40;;;;;;;;;0.50;0.50;;;;;;;;5076232;28;45593;-68
2022/01/29 07:42:05;;;;;;;;;1.75;1.75;;;;;;;;5077197;27;46338;-69
2022/01/29 07:44:30;;;;;;;;;1.75;1.75;;;;;;;;5082952;27;45363;-68
2022/01/29 07:46:56;;;;;;;;;0.00;0.00;;;;;;;;5077511;27;45393;-69
2022/01/29 07:49:21;;;;;;;;;1.00;1.00;;;;;;;;5075524;28;45394;-69
2022/01/29 07:51:46;;;;;;;;;2.00;1.00;;;;;;;;5088737;27;46583;-68
2022/01/29 07:54:11;;;;;;;;;0.75;0.75;;;;;;;;5077897;27;45331;-69
2022/01/29 07:56:36;;;;;;;;;1.00;1.00;;;;;;;;5075163;27;45439;-68
2022/01/29 07:59:03;;;;;;;;;1.00;1.00;;;;;;;;5073584;27;45363;-68
2022/01/29 08:01:28;;;;;;;;;1.00;1.00;;;;;;;;5075212;28;46795;-68
2022/01/29 08:03:53;;;;;;;;;0.75;0.75;;;;;;;;5089327;27;45457;-68
2022/01/29 08:06:20;;;;;;;;;1.00;1.00;;;;;;;;5078694;27;45355;-68
2022/01/29 08:08:45;;;;;;;;;2.00;2.00;;;;;;;;5075758;27;45590;-68
2022/01/29 08:11:11;;;;;;;;;0.00;0.00;;;;;;;;5072722;28;45394;-68
2022/01/29 08:13:36;;;;;;;;;1.50;1.00;;;;;;;;5082124;27;45529;-69
2022/01/29 08:16:02;;;;;;;;;0.00;0.00;;;;;;;;5076884;28;45737;-68
2022/01/29 08:18:27;;;;;;;;;2.00;2.00;;;;;;;;5072506;27;45446;-68
2022/01/29 08:20:52;;;;;;;;;1.00;1.00;;;;;;;;5074226;27;45554;-69
2022/01/29 08:23:18;;;;;;;;;1.00;1.00;;;;;;;;5074311;28;45413;-68
2022/01/29 08:25:43;;;;;;;;;1.25;1.25;;;;;;;;5075019;27;45518;-69
2022/01/29 08:28:08;;;;;;;;;1.00;1.00;;;;;;;;5077088;27;45338;-68
2022/01/29 08:30:34;;;;;;;;;1.00;1.00;;;;;;;;5075512;28;46426;-69
2022/01/29 08:33:00;;;;;;;;;1.00;1.00;;;;;;;;5073994;27;45446;-68
2022/01/29 08:35:25;;;;;;;;;0.75;0.75;;;;;;;;5073070;27;45317;-69
2022/01/29 08:37:50;;;;;;;;;1.00;1.00;;;;;;;;5074390;27;45288;-68
2022/01/29 08:40:16;;;;;;;;;1.00;1.00;;;;;;;;5075218;28;46507;-68
2022/01/29 08:42:41;;;;;;;;;2.50;2.00;;;;;;;;5075327;27;45809;-68
2022/01/29 08:45:07;;;;;;;;;1.00;1.00;;;;;;;;5072333;28;45628;-68
2022/01/29 08:47:33;;;;;;;;;1.00;1.00;;;;;;;;5079162;27;45593;-69
2022/01/29 08:49:58;;;;;;;;;1.00;1.00;;;;;;;;5081374;27;46300;-68
2022/01/29 08:52:23;;;;;;;;;1.00;1.00;;;;;;;;5075013;28;45356;-69
2022/01/29 08:54:48;;;;;;;;;1.00;1.00;;;;;;;;5074252;27;45438;-68
2022/01/29 08:57:13;;;;;;;;;1.00;1.00;;;;;;;;5075243;27;45440;-68
2022/01/29 08:59:39;;;;;;;;;1.00;1.00;;;;;;;;5073857;28;45435;-68
2022/01/29 09:02:04;;;;;;;;;1.00;1.00;;;;;;;;5072920;28;45384;-68
2022/01/29 09:04:30;;;;;;;;;3.00;1.00;;;;;;;;5073924;28;45514;-68
2022/01/29 09:06:55;;;;;;;;;1.00;1.00;;;;;;;;5075569;27;45447;-68
2022/01/29 09:09:24;;;;;;;;;0.50;0.50;;;;;;;;5072579;28;45438;-68
2022/01/29 09:11:51;;;;;;;;;1.00;1.00;;;;;;;;5073205;27;45469;-68
2022/01/29 09:14:16;;;;;;;;;0.25;0.00;;;;;;;;5073882;27;45447;-68
2022/01/29 09:16:42;;;;;;;;;0.33;0.33;;;;;;;;5073185;28;45399;-69
2022/01/29 09:19:07;;;;;;;;;2.00;1.00;;;;;;;;5076494;27;46603;-68
2022/01/29 09:21:32;;;;;;;;;0.75;0.00;;;;;;;;5072393;27;45376;-68
2022/01/29 09:23:57;;;;;;;;;1.00;1.00;;;;;;;;5073661;27;45277;-68
2022/01/29 09:26:23;;;;;;;;;1.00;1.00;;;;;;;;5073977;28;45528;-69
2022/01/29 09:28:48;;;;;;;;;1.00;1.00;;;;;;;;5071868;28;46526;-68
2022/01/29 09:31:13;;;;;;;;;0.50;0.50;;;;;;;;5075092;27;47637;-69
2022/01/29 09:33:39;;;;;;;;;0.00;0.00;;;;;;;;5072736;28;45347;-68
2022/01/29 09:36:04;;;;;;;;;1.00;1.00;;;;;;;;5073205;28;45480;-69
2022/01/29 09:38:29;;;;;;;;;1.50;1.00;;;;;;;;5073484;28;46200;-68
2022/01/29 09:40:54;;;;;;;;;1.50;0.50;;;;;;;;5073750;28;45466;-68
2022/01/29 09:43:20;;;;;;;;;1.50;0.50;;;;;;;;5074430;28;45339;-69
2022/01/29 09:45:50;;;;;;;;;1.00;1.00;;;;;;;;5074681;28;45452;-68
2022/01/29 09:48:18;;;;;;;;;0.50;0.50;;;;;;;;5070551;27;47014;-70
2022/01/29 09:50:43;;;;;;;;;0.50;0.50;;;;;;;;5071923;28;45424;-69
2022/01/29 09:53:09;;;;;;;;;1.00;1.00;;;;;;;;5073499;28;45467;-69
2022/01/29 09:55:34;;;;;;;;;3.25;2.00;;;;;;;;5073605;28;45291;-69
2022/01/29 09:57:59;;;;;;;;;0.75;0.75;;;;;;;;5073470;28;45430;-70
2022/01/29 10:00:25;;;;;;;;;0.00;0.00;;;;;;;;5065740;28;45630;-70
2022/01/29 10:03:09;;;;;;;;;1.00;1.00;;;;;;;;5070823;28;45461;-69
2022/01/29 10:05:35;;;;;;;;;1.50;0.25;;;;;;;;5074284;28;45491;-70
2022/01/29 10:08:01;;;;;;;;;1.00;1.00;;;;;;;;5074988;27;46328;-69
2022/01/29 10:10:26;;;;;;;;;1.00;1.00;;;;;;;;5073309;28;45348;-70
2022/01/29 10:12:51;;;;;;;;;1.00;1.00;;;;;;;;5073009;28;45479;-70
2022/01/29 10:15:16;;;;;;;;;0.00;0.00;;;;;;;;5070092;28;45430;-70
2022/01/29 10:17:48;;;;;;;;;2.00;1.00;;;;;;;;5069266;28;45704;-70
2022/01/29 10:20:15;;;;;;;;;1.00;1.00;;;;;;;;5073090;27;45469;-69
2022/01/29 10:22:41;;;;;;;;;1.00;1.00;;;;;;;;5071750;28;45402;-70
2022/01/29 10:25:09;;;;;;;;;1.00;1.00;;;;;;;;5074500;28;45360;-69
2022/01/29 10:27:35;;;;;;;;;1.00;1.00;;;;;;;;5069191;28;46198;-70
2022/01/29 10:30:00;;;;;;;;;0.00;0.00;;;;;;;;5070235;27;45619;-69
2022/01/29 10:32:26;;;;;;;;;0.50;0.50;;;;;;;;5071195;28;45659;-70
2022/01/29 10:34:56;;;;;;;;;0.50;0.50;;;;;;;;5069404;27;45657;-69
2022/01/29 10:37:23;;;;;;;;;1.00;1.00;;;;;;;;5071309;28;46403;-69
2022/01/29 10:39:53;;;;;;;;;0.75;0.75;;;;;;;;5071350;27;45353;-70
2022/01/29 10:42:20;;;;;;;;;0.50;0.50;;;;;;;;5069763;28;45419;-69
2022/01/29 10:44:47;;;;;;;;;0.00;0.00;;;;;;;;5073906;27;45412;-70
2022/01/29 10:47:12;;;;;;;;;0.00;0.00;;;;;;;;5064859;27;47607;-70
2022/01/29 10:49:44;;;;;;;;;0.00;0.00;;;;;;;;5071718;28;45490;-69
2022/01/29 10:52:10;;;;;;;;;1.00;0.00;;;;;;;;5072795;28;45481;-70
2022/01/29 10:54:37;;;;;;;;;0.33;0.33;;;;;;;;5071935;28;45542;-69
2022/01/29 10:57:04;;;;;;;;;1.00;1.00;;;;;;;;5071262;28;45497;-69
2022/01/29 10:59:36;;;;;;;;;0.00;0.00;;;;;;;;5073784;28;45321;-70
2022/01/29 11:02:06;;;;;;;;;1.00;1.00;;;;;;;;5069629;27;45415;-69
2022/01/29 11:04:33;;;;;;;;;0.00;0.00;;;;;;;;5074627;28;45403;-69
2022/01/29 11:07:02;;;;;;;;;0.00;0.00;;;;;;;;5075957;28;46725;-69
2022/01/29 11:09:29;;;;;;;;;1.00;1.00;;;;;;;;5073345;28;45474;-69
2022/01/29 11:11:56;;;;;;;;;0.00;0.00;;;;;;;;5074908;27;45361;-70
2022/01/29 11:14:22;;;;;;;;;0.00;0.00;;;;;;;;5072902;28;45439;-70
2022/01/29 11:16:47;;;;;;;;;0.00;0.00;;;;;;;;5075773;27;47399;-70
2022/01/29 11:19:14;;;;;;;;;0.00;0.00;;;;;;;;5077233;27;45438;-70
2022/01/29 11:21:40;;;;;;;;;1.00;1.00;;;;;;;;5070962;28;45480;-70
2022/01/29 11:24:06;;;;;;;;;1.00;0.00;;;;;;;;5072701;27;45515;-69
2022/01/29 11:26:32;;;;;;;;;0.00;0.00;;;;;;;;5070311;28;47472;-70
2022/01/29 11:29:16;;;;;;;;;1.00;1.00;;;;;;;;5072129;27;45532;-69
2022/01/29 11:31:41;;;;;;;;;0.00;0.00;;;;;;;;5076192;27;45353;-69
2022/01/29 11:34:08;;;;;;;;;0.50;0.50;;;;;;;;5075935;28;45505;-69
2022/01/29 11:36:48;;;;;;;;;0.00;0.00;;;;;;;;5074528;28;47116;-70
2022/01/29 11:39:19;;;;;;;;;0.50;0.50;;;;;;;;5072246;28;45532;-69
2022/01/29 11:41:45;;;;;;;;;1.00;1.00;;;;;;;;5068676;28;45412;-70
2022/01/29 11:44:26;;;;;;;;;0.00;0.00;;;;;;;;5066384;27;45441;-69
2022/01/29 11:46:51;;;;;;;;;1.00;0.75;;;;;;;;5072754;28;45565;-70
2022/01/29 11:49:19;;;;;;;;;0.00;0.00;;;;;;;;5066391;28;45504;-70
2022/01/29 11:51:45;;;;;;;;;0.00;0.00;;;;;;;;5074037;28;45517;-69
2022/01/29 11:54:12;;;;;;;;;0.25;0.25;;;;;;;;5064492;27;45435;-69
2022/01/29 11:56:39;;;;;;;;;2.00;1.00;;;;;;;;5068257;28;47108;-70
2022/01/29 11:59:19;;;;;;;;;0.25;0.25;;;;;;;;5071049;27;45807;-70
2022/01/29 12:01:49;;;;;;;;;1.00;0.75;;;;;;;;5073998;28;45525;-70
2022/01/29 12:04:16;;;;;;;;;0.00;0.00;;;;;;;;5070031;28;45443;-70
2022/01/29 12:07:02;;;;;;;;;0.00;0.00;;;;;;;;5075082;28;46283;-70
2022/01/29 12:09:33;;;;;;;;;0.00;0.00;;;;;;;;5062952;27;45408;-70
2022/01/29 12:12:17;;;;;;;;;0.25;0.25;;;;;;;;5076502;27;45438;-71
2022/01/29 12:14:42;;;;;;;;;0.00;0.00;;;;;;;;5076550;27;45328;-70
2022/01/29 12:17:08;;;;;;;;;1.00;0.50;;;;;;;;5077342;27;46256;-68
2022/01/29 12:19:37;;;;;;;;;0.50;0.50;;;;;;;;5073552;27;45352;-69
2022/01/29 12:22:21;;;;;;;;;0.00;0.00;;;;;;;;5075688;28;45364;-70
2022/01/29 12:24:48;;;;;;;;;1.00;0.00;;;;;;;;5057930;28;45609;-70
2022/01/29 12:27:13;;;;;;;;;0.00;0.00;;;;;;;;5072270;28;45506;-69
2022/01/29 12:29:38;;;;;;;;;1.00;1.00;;;;;;;;5074088;28;45312;-70
2022/01/29 12:32:04;;;;;;;;;0.00;0.00;;;;;;;;5074582;28;45743;-69
2022/01/29 12:34:29;;;;;;;;;0.50;0.50;;;;;;;;5074783;28;45388;-70
2022/01/29 12:37:11;;;;;;;;;0.50;0.00;;;;;;;;5076626;27;46400;-69
2022/01/29 12:39:37;;;;;;;;;0.00;0.00;;;;;;;;5074171;27;45265;-70
2022/01/29 12:42:13;;;;;;;;;0.00;0.00;;;;;;;;5073973;28;45450;-70
2022/01/29 12:44:39;;;;;;;;;0.00;0.00;;;;;;;;5072907;28;45446;-69
2022/01/29 12:47:04;;;;;;;;;0.00;0.00;;;;;;;;5069317;28;46756;-70
2022/01/29 12:49:50;;;;;;;;;2.00;0.00;;;;;;;;5074195;28;45495;-70
2022/01/29 12:52:17;;;;;;;;;0.00;0.00;;;;;;;;5066874;27;45347;-69
2022/01/29 12:54:50;;;;;;;;;1.00;0.75;;;;;;;;5074418;28;45576;-69
2022/01/29 12:57:15;;;;;;;;;0.00;0.00;;;;;;;;5072124;28;47319;-69
2022/01/29 12:59:40;;;;;;;;;1.00;1.00;;;;;;;;5064581;27;45635;-69
2022/01/29 13:02:06;;;;;;;;;1.25;0.00;;;;;;;;5059334;28;45559;-69
2022/01/29 13:04:31;;;;;;;;;0.00;0.00;;;;;;;;5073659;28;45428;-69
2022/01/29 13:07:01;;;;;;;;;0.00;0.00;;;;;;;;5056027;28;47630;-69
2022/01/29 13:09:30;;;;;;;;;2.00;0.50;;;;;;;;5056463;28;45281;-69
2022/01/29 13:12:15;;;;;;;;;0.00;0.00;;;;;;;;5072205;28;45472;-69
2022/01/29 13:14:41;;;;;;;;;0.00;0.00;;;;;;;;5072055;28;45446;-69
2022/01/29 13:17:07;;;;;;;;;0.75;0.75;;;;;;;;5073170;27;46012;-69
2022/01/29 13:19:33;;;;;;;;;2.50;1.00;;;;;;;;5053923;28;45392;-70
2022/01/29 13:22:07;;;;;;;;;0.00;0.00;;;;;;;;5059623;28;45556;-69
2022/01/29 13:24:34;;;;;;;;;1.00;1.00;;;;;;;;5063203;28;45277;-69
2022/01/29 13:27:03;;;;;;;;;0.75;0.75;;;;;;;;5063222;28;45623;-69
2022/01/29 13:29:33;;;;;;;;;0.00;0.00;;;;;;;;5071957;28;45450;-70
2022/01/29 13:31:58;;;;;;;;;0.00;0.00;;;;;;;;5071718;27;45380;-69
2022/01/29 13:34:31;;;;;;;;;1.00;1.00;;;;;;;;5074232;28;45328;-70
2022/01/29 13:36:57;;;;;;;;;0.00;0.00;;;;;;;;5073898;28;46444;-69
2022/01/29 13:39:22;;;;;;;;;1.00;1.00;;;;;;;;5071496;27;45587;-70
2022/01/29 13:42:03;;;;;;;;;1.00;1.00;;;;;;;;5071907;28;45529;-69
2022/01/29 13:44:29;;;;;;;;;1.00;1.00;;;;;;;;5075249;27;45339;-68
2022/01/29 13:47:23;;;;;;;;;0.00;0.00;;;;;;;;5071133;27;46329;-68
2022/01/29 13:49:51;;;;;;;;;0.00;0.00;;;;;;;;5045013;28;45508;-69
2022/01/29 13:52:18;;;;;;;;;0.00;0.00;;;;;;;;5073861;28;45401;-68
2022/01/29 13:54:43;;;;;;;;;0.50;0.50;;;;;;;;5073976;27;45475;-69
2022/01/29 13:57:08;;;;;;;;;1.00;1.00;;;;;;;;5072904;28;46807;-69
2022/01/29 13:59:37;;;;;;;;;0.00;0.00;;;;;;;;5071125;28;45299;-68
2022/01/29 14:02:04;;;;;;;;;0.50;0.50;;;;;;;;5071940;28;45414;-69
2022/01/29 14:04:34;;;;;;;;;1.00;1.00;;;;;;;;5073145;28;45522;-69
2022/01/29 14:07:00;;;;;;;;;1.00;1.00;;;;;;;;5073354;28;46128;-69
2022/01/29 14:09:36;;;;;;;;;1.00;1.00;;;;;;;;5070929;28;45474;-69
2022/01/29 14:12:09;;;;;;;;;1.50;0.00;;;;;;;;5071287;27;45761;-69
2022/01/29 14:14:35;;;;;;;;;1.00;0.00;;;;;;;;5071227;28;45327;-69
2022/01/29 14:17:01;;;;;;;;;0.75;0.75;;;;;;;;5071440;27;45426;-69
2022/01/29 14:19:28;;;;;;;;;3.00;1.00;;;;;;;;5073057;28;45756;-69
2022/01/29 14:21:55;;;;;;;;;0.00;0.00;;;;;;;;5072584;28;45469;-69
2022/01/29 14:24:21;;;;;;;;;1.00;1.00;;;;;;;;5072860;28;45437;-69
2022/01/29 14:26:47;;;;;;;;;0.50;0.50;;;;;;;;5070724;28;46297;-70
2022/01/29 14:29:12;;;;;;;;;0.00;0.00;;;;;;;;5071239;28;46280;-69
2022/01/29 14:31:37;;;;;;;;;2.00;1.00;;;;;;;;5071716;28;45371;-69
2022/01/29 14:34:05;;;;;;;;;0.33;0.33;;;;;;;;5058957;28;45300;-69
2022/01/29 14:36:30;;;;;;;;;0.00;0.00;;;;;;;;5073865;28;45695;-69
2022/01/29 14:38:55;;;;;;;;;1.00;1.00;;;;;;;;5074219;28;45446;-69
2022/01/29 14:41:21;;;;;;;;;0.00;0.00;;;;;;;;5074386;28;45449;-69
2022/01/29 14:43:47;;;;;;;;;1.00;1.00;;;;;;;;5074649;28;45279;-69
2022/01/29 14:46:12;;;;;;;;;1.00;0.00;;;;;;;;5077629;27;47061;-69
2022/01/29 14:48:37;;;;;;;;;1.00;1.00;;;;;;;;5074388;28;45450;-69
2022/01/29 14:51:03;;;;;;;;;0.25;0.25;;;;;;;;5074096;28;45359;-69
2022/01/29 14:53:29;;;;;;;;;1.00;1.00;;;;;;;;5074287;28;45398;-70
2022/01/29 14:55:54;;;;;;;;;0.00;0.00;;;;;;;;5074534;27;46116;-69